Time;durP1;ratioP1;P1;durP2;ratioP2;P2;SDS_P1;SDS_P2;PMS_P1;PMS_P2;Temp;Humidity;BMP_temperature;BMP_pressure;BME280_temperature;BME280_humidity;BME280_pressure;Samples;Min_cycle;Max_cycle;Signal;HPM_P1;HPM_P2
2022/05/15 00:00:42;;;;;;;4.35;3.63;;;;;;;27.68;47.96;99178.19;5079251;28;20030;-81
2022/05/15 00:03:30;;;;;;;4.72;3.25;;;;;;;27.68;47.79;99170.16;5062935;28;20025;-79
2022/05/15 00:06:02;;;;;;;4.15;3.30;;;;;;;27.67;47.74;99168.47;5081946;28;20523;-82
2022/05/15 00:08:33;;;;;;;5.22;3.55;;;;;;;27.66;47.66;99158.75;5080999;28;20027;-78
2022/05/15 00:11:03;;;;;;;4.55;3.58;;;;;;;27.63;47.93;99159.88;5083124;28;20028;-79
2022/05/15 00:13:29;;;;;;;5.88;3.85;;;;;;;27.64;47.64;99155.38;5064528;28;20021;-78
2022/05/15 00:15:55;;;;;;;4.15;3.17;;;;;;;27.63;47.92;99153.66;5062078;28;20089;-81
2022/05/15 00:18:22;;;;;;;4.88;3.45;;;;;;;27.61;48.12;99151.97;5078488;28;20028;-79
2022/05/15 00:20:49;;;;;;;4.90;3.58;;;;;;;27.59;47.82;99148.63;5077901;28;20044;-78
2022/05/15 00:23:18;;;;;;;4.50;3.30;;;;;;;27.59;48.10;99153.97;5079335;28;20020;-80
2022/05/15 00:25:44;;;;;;;3.35;2.80;;;;;;;27.58;48.04;99149.59;5063119;28;20055;-81
2022/05/15 00:28:10;;;;;;;4.80;3.80;;;;;;;27.56;48.07;99146.19;5082207;28;20446;-80
2022/05/15 00:30:36;;;;;;;4.93;3.85;;;;;;;27.57;47.82;99145.22;5065322;28;20044;-79
2022/05/15 00:33:03;;;;;;;4.40;3.38;;;;;;;27.55;47.84;99140.97;5062882;28;20051;-79
2022/05/15 00:35:29;;;;;;;4.43;3.58;;;;;;;27.54;47.86;99134.75;5062087;28;20067;-79
2022/05/15 00:37:55;;;;;;;4.07;3.22;;;;;;;27.54;48.12;99145.47;5060532;28;20020;-79
2022/05/15 00:40:22;;;;;;;5.15;3.50;;;;;;;27.53;47.67;99133.09;5078618;28;20032;-78
2022/05/15 00:42:49;;;;;;;5.20;3.70;;;;;;;27.51;47.89;99129.72;5059537;28;20086;-80
2022/05/15 00:45:17;;;;;;;6.53;3.75;;;;;;;27.50;48.08;99136.03;5059595;28;20025;-80
2022/05/15 00:47:43;;;;;;;4.63;3.45;;;;;;;27.48;47.70;99133.53;5079038;28;20035;-79
2022/05/15 00:50:14;;;;;;;5.45;3.50;;;;;;;27.48;48.15;99135.34;5062335;28;20044;-81
2022/05/15 00:52:48;;;;;;;4.43;3.35;;;;;;;27.48;47.96;99135.34;5081408;28;20025;-80
2022/05/15 00:55:24;;;;;;;4.88;3.30;;;;;;;27.46;48.11;99122.09;5061891;28;20098;-79
2022/05/15 00:57:55;;;;;;;4.32;3.28;;;;;;;27.46;48.07;99110.53;5064947;28;20024;-80
2022/05/15 01:00:25;;;;;;;6.47;3.67;;;;;;;27.44;47.96;99113.34;5080093;28;20016;-81
2022/05/15 01:03:05;;;;;;;5.30;3.78;;;;;;;27.44;47.80;99115.19;5082398;28;20025;-79
2022/05/15 01:05:38;;;;;;;4.50;3.33;;;;;;;27.42;47.95;99122.53;5080084;28;20026;-79
2022/05/15 01:08:04;;;;;;;5.75;3.90;;;;;;;27.41;48.00;99118.16;5086649;28;20472;-81
2022/05/15 01:10:29;;;;;;;4.55;3.15;;;;;;;27.41;48.11;99126.19;5066834;28;20097;-80
2022/05/15 01:12:58;;;;;;;4.50;3.53;;;;;;;27.39;47.86;99123.66;5065365;28;20020;-81
2022/05/15 01:15:26;;;;;;;4.03;3.17;;;;;;;27.39;47.90;99120.97;5064024;28;20115;-80
2022/05/15 01:17:53;;;;;;;4.40;3.10;;;;;;;27.37;47.90;99117.63;5081118;28;20035;-81
2022/05/15 01:20:26;;;;;;;4.32;3.20;;;;;;;27.36;48.25;99115.94;5065868;28;20016;-81
2022/05/15 01:22:52;;;;;;;4.40;3.20;;;;;;;27.35;48.09;99114.22;5082282;28;20031;-80
2022/05/15 01:25:24;;;;;;;6.20;3.53;;;;;;;27.35;48.15;99114.22;5067552;28;20021;-80
2022/05/15 01:27:59;;;;;;;4.57;3.10;;;;;;;27.32;48.27;99115.34;5085894;28;20020;-80
2022/05/15 01:30:28;;;;;;;4.95;3.45;;;;;;;27.31;48.13;99119.00;5069167;28;20028;-81
2022/05/15 01:32:53;;;;;;;4.18;3.03;;;;;;;27.31;48.05;99113.66;5066747;28;20048;-81
2022/05/15 01:35:19;;;;;;;5.05;3.67;;;;;;;27.30;47.86;99117.34;5084994;28;20350;-84
2022/05/15 01:37:45;;;;;;;4.63;3.25;;;;;;;27.29;47.99;99115.66;5088067;28;20446;-82
2022/05/15 01:40:14;;;;;;;4.25;3.10;;;;;;;27.28;48.00;99103.25;5086556;28;20021;-83
2022/05/15 01:42:39;;;;;;;4.20;3.08;;;;;;;27.28;47.86;99110.44;5061363;28;20461;-80
2022/05/15 01:45:06;;;;;;;4.28;3.22;;;;;;;27.26;48.13;99107.88;5057814;28;20031;-80
2022/05/15 01:47:32;;;;;;;4.97;3.50;;;;;;;27.26;48.33;99115.91;5077008;28;20389;-79
2022/05/15 01:49:58;;;;;;;4.53;3.28;;;;;;;27.25;48.26;99114.22;5075908;28;20020;-80
2022/05/15 01:52:24;;;;;;;4.85;3.25;;;;;;;27.24;48.21;99109.00;5075306;28;20027;-79
2022/05/15 01:54:49;;;;;;;5.07;3.67;;;;;;;27.23;48.28;99113.53;5075287;28;20048;-79
2022/05/15 01:57:15;;;;;;;5.10;3.40;;;;;;;27.22;48.26;99114.53;5075444;28;20020;-79
2022/05/15 01:59:40;;;;;;;5.43;3.25;;;;;;;27.22;47.85;99109.19;5075186;28;20115;-79
2022/05/15 02:02:07;;;;;;;4.15;3.20;;;;;;;27.21;47.93;99115.50;5057581;28;20028;-79
2022/05/15 02:04:33;;;;;;;4.90;3.38;;;;;;;27.20;47.84;99108.47;5075205;28;20039;-81
2022/05/15 02:06:59;;;;;;;4.55;3.15;;;;;;;27.18;48.05;99099.72;5057543;28;20122;-80
2022/05/15 02:09:25;;;;;;;3.95;3.25;;;;;;;27.18;47.87;99102.41;5075317;28;20121;-80
2022/05/15 02:11:52;;;;;;;4.72;3.50;;;;;;;27.17;48.23;99108.75;5057820;28;20048;-79
2022/05/15 02:14:18;;;;;;;4.90;3.20;;;;;;;27.16;48.20;99096.38;5057519;28;20539;-80
2022/05/15 02:16:43;;;;;;;4.85;3.33;;;;;;;27.14;48.13;99096.50;5057535;28;20028;-80
2022/05/15 02:19:09;;;;;;;6.38;3.53;;;;;;;27.13;47.94;99099.31;5058023;28;20111;-80
2022/05/15 02:21:35;;;;;;;4.55;3.25;;;;;;;27.12;48.00;99098.47;5060741;28;20118;-80
2022/05/15 02:24:01;;;;;;;4.57;3.40;;;;;;;27.12;48.04;99092.28;5060190;28;20032;-79
2022/05/15 02:26:26;;;;;;;4.45;3.25;;;;;;;27.10;48.45;99095.09;5057831;28;20024;-79
2022/05/15 02:28:52;;;;;;;4.20;3.20;;;;;;;27.10;48.40;99094.25;5075008;28;20055;-80
2022/05/15 02:31:18;;;;;;;4.72;3.30;;;;;;;27.09;48.45;99104.13;5057088;28;20020;-79
2022/05/15 02:33:43;;;;;;;4.20;3.20;;;;;;;27.08;48.48;99091.72;5074470;28;20049;-79
2022/05/15 02:36:10;;;;;;;4.28;3.05;;;;;;;27.06;48.20;99089.19;5057107;28;20041;-79
2022/05/15 02:38:37;;;;;;;4.53;3.28;;;;;;;27.07;48.01;99085.50;5074803;28;20035;-79
2022/05/15 02:41:03;;;;;;;4.07;3.15;;;;;;;27.06;48.29;99080.28;5057108;28;20024;-78
2022/05/15 02:43:29;;;;;;;4.07;2.78;;;;;;;27.05;48.03;99081.28;5057169;28;20028;-79
2022/05/15 02:45:55;;;;;;;5.38;3.03;;;;;;;27.03;48.32;99070.69;5056213;28;20496;-79
2022/05/15 02:51:05;;;;;;;4.75;3.22;;;;;;;26.99;48.26;99066.66;5075116;28;20120;-81
2022/05/15 02:53:40;;;;;;;4.75;3.20;;;;;;;26.99;48.47;99077.34;5075174;28;20017;-79
2022/05/15 02:56:17;;;;;;;4.45;3.25;;;;;;;26.99;48.16;99074.69;5075351;28;20362;-81
2022/05/15 02:58:43;;;;;;;4.18;3.22;;;;;;;26.97;48.35;99073.94;5057424;28;20024;-80
2022/05/15 03:01:08;;;;;;;5.28;3.47;;;;;;;26.97;48.38;99071.28;5057504;28;20016;-80
2022/05/15 03:03:34;;;;;;;4.63;3.33;;;;;;;26.96;48.24;99069.59;5059328;28;20339;-79
2022/05/15 03:06:00;;;;;;;3.80;3.10;;;;;;;26.94;48.15;99064.38;5057899;28;20017;-80
2022/05/15 03:08:26;;;;;;;4.68;3.10;;;;;;;26.93;48.17;99068.03;5057814;28;20025;-79
2022/05/15 03:10:52;;;;;;;4.65;3.10;;;;;;;26.92;48.28;99073.56;5076051;28;20028;-81
2022/05/15 03:13:18;;;;;;;5.07;3.58;;;;;;;26.92;48.28;99076.25;5075566;28;20020;-80
2022/05/15 03:15:43;;;;;;;5.07;3.60;;;;;;;26.91;48.10;99080.75;5076316;28;20040;-80
2022/05/15 03:18:09;;;;;;;4.65;3.25;;;;;;;26.91;48.28;99093.22;5058949;28;20362;-79
2022/05/15 03:20:34;;;;;;;4.95;3.20;;;;;;;26.91;48.22;99085.19;5058621;28;20027;-79
2022/05/15 03:23:00;;;;;;;5.22;3.35;;;;;;;26.90;48.30;99086.19;5075831;28;20453;-80
2022/05/15 03:25:27;;;;;;;4.10;3.17;;;;;;;26.89;48.23;99087.19;5076820;28;20025;-81
2022/05/15 03:27:54;;;;;;;4.20;3.20;;;;;;;26.88;48.29;99085.50;5060497;28;20397;-82
2022/05/15 03:30:21;;;;;;;4.25;3.20;;;;;;;26.87;48.11;99075.78;5076381;28;20362;-82
2022/05/15 03:32:46;;;;;;;4.50;3.30;;;;;;;26.87;48.31;99079.28;5074454;28;20052;-81
2022/05/15 03:35:14;;;;;;;5.38;3.38;;;;;;;26.85;48.04;99075.91;5056809;28;20039;-79
2022/05/15 03:37:40;;;;;;;4.38;3.45;;;;;;;26.85;47.98;99080.41;5074598;28;20027;-79
2022/05/15 03:40:07;;;;;;;4.00;3.08;;;;;;;26.83;48.14;99077.03;5079461;28;20028;-81
2022/05/15 03:42:32;;;;;;;4.18;3.20;;;;;;;26.83;48.06;99085.06;5063025;28;20059;-81
2022/05/15 03:44:58;;;;;;;5.68;3.05;;;;;;;26.84;47.99;99081.41;5062611;28;20035;-83
2022/05/15 03:47:24;;;;;;;4.13;3.15;;;;;;;26.83;48.17;99077.03;5081645;28;20020;-83
2022/05/15 03:49:50;;;;;;;3.97;2.90;;;;;;;26.83;48.07;99079.72;5082628;28;20087;-82
2022/05/15 03:52:17;;;;;;;5.35;3.20;;;;;;;26.81;48.27;99075.34;5065051;28;20063;-83
2022/05/15 03:54:44;;;;;;;5.95;3.63;;;;;;;26.80;47.90;99078.16;5080507;28;20029;-81
2022/05/15 03:57:10;;;;;;;4.72;2.95;;;;;;;26.77;48.08;99071.25;5076476;28;20043;-81
2022/05/15 03:59:37;;;;;;;4.47;3.25;;;;;;;26.77;48.05;99076.63;5060135;28;20028;-79
2022/05/15 04:02:05;;;;;;;4.60;3.50;;;;;;;26.77;48.09;99073.94;5077661;28;20020;-80
2022/05/15 04:04:33;;;;;;;4.20;3.08;;;;;;;26.75;48.00;99067.03;5077526;28;20368;-79
2022/05/15 04:07:00;;;;;;;4.53;3.33;;;;;;;26.75;48.03;99064.38;5077738;28;20043;-80
2022/05/15 04:09:26;;;;;;;4.28;3.30;;;;;;;26.73;48.37;99061.81;5077522;28;20024;-80
2022/05/15 04:11:52;;;;;;;4.20;3.13;;;;;;;26.73;48.19;99056.47;5059602;28;20048;-79
2022/05/15 04:14:17;;;;;;;4.40;3.08;;;;;;;26.71;48.19;99055.78;5059707;28;20424;-81
2022/05/15 04:16:43;;;;;;;5.50;3.10;;;;;;;26.70;47.91;99061.25;5077708;28;20115;-81
2022/05/15 04:19:09;;;;;;;3.95;3.28;;;;;;;26.71;48.23;99053.09;5061486;28;20100;-79
2022/05/15 04:21:40;;;;;;;5.13;3.42;;;;;;;26.71;47.81;99058.44;5077711;28;20350;-80
2022/05/15 04:24:11;;;;;;;4.88;3.53;;;;;;;26.70;48.14;99062.13;5077170;28;20060;-79
2022/05/15 04:26:38;;;;;;;3.97;3.10;;;;;;;26.70;47.96;99063.94;5059364;28;20035;-80
2022/05/15 04:29:05;;;;;;;4.43;3.33;;;;;;;26.67;47.89;99067.75;5059529;28;20063;-80
2022/05/15 04:31:31;;;;;;;4.57;3.38;;;;;;;26.66;48.27;99066.06;5077221;28;20028;-80
2022/05/15 04:33:56;;;;;;;4.45;3.22;;;;;;;26.67;47.77;99067.75;5058899;28;20371;-80
2022/05/15 04:36:22;;;;;;;4.30;3.00;;;;;;;26.64;48.05;99068.03;5077133;28;20070;-79
2022/05/15 04:38:48;;;;;;;4.95;3.15;;;;;;;26.65;47.86;99072.41;5059321;28;20028;-80
2022/05/15 04:41:14;;;;;;;5.13;3.20;;;;;;;26.64;48.06;99062.69;5059361;28;20362;-79
2022/05/15 04:43:39;;;;;;;4.68;2.83;;;;;;;26.63;47.82;99056.47;5059296;28;20111;-80
2022/05/15 04:46:07;;;;;;;4.75;2.97;;;;;;;26.63;47.78;99061.00;5078446;28;20445;-81
2022/05/15 04:48:40;;;;;;;5.03;3.42;;;;;;;26.59;47.99;99063.13;5076978;28;20032;-79
2022/05/15 04:51:06;;;;;;;5.55;3.60;;;;;;;26.60;47.83;99066.63;5059361;28;20039;-79
2022/05/15 04:53:32;;;;;;;6.93;3.65;;;;;;;26.60;47.70;99071.97;5076693;28;20029;-79
2022/05/15 04:55:58;;;;;;;4.80;3.55;;;;;;;26.58;47.71;99074.78;5078742;28;20335;-80
2022/05/15 04:58:24;;;;;;;5.05;3.55;;;;;;;26.58;47.69;99076.63;5076715;28;20025;-80
2022/05/15 05:00:50;;;;;;;5.68;3.58;;;;;;;26.58;47.89;99076.63;5059593;28;20020;-79
2022/05/15 05:03:15;;;;;;;4.35;3.17;;;;;;;26.59;47.72;99081.00;5059663;28;20025;-81
2022/05/15 05:05:41;;;;;;;4.10;3.00;;;;;;;26.57;47.88;99089.16;5079366;28;20031;-82
2022/05/15 05:08:09;;;;;;;4.13;3.03;;;;;;;26.53;48.09;99079.69;5076816;28;20028;-81
2022/05/15 05:10:35;;;;;;;4.03;2.97;;;;;;;26.54;47.83;99084.91;5078138;28;20093;-83
2022/05/15 05:13:00;;;;;;;5.03;3.53;;;;;;;26.51;47.72;99079.84;5076435;28;20059;-82
2022/05/15 05:15:26;;;;;;;4.50;3.10;;;;;;;26.49;47.82;99081.81;5058631;28;20028;-80
2022/05/15 05:17:51;;;;;;;6.10;3.53;;;;;;;26.52;47.86;99083.38;5076119;28;20031;-81
2022/05/15 05:20:17;;;;;;;5.82;3.45;;;;;;;26.50;47.82;99088.88;5076395;28;20469;-82
2022/05/15 05:22:42;;;;;;;5.18;3.08;;;;;;;26.51;47.89;99084.34;5059125;28;20078;-81
2022/05/15 05:25:09;;;;;;;5.30;3.50;;;;;;;26.51;47.67;99069.16;5076129;28;20028;-82
2022/05/15 05:27:38;;;;;;;5.15;2.92;;;;;;;26.52;47.60;99080.69;5075942;28;20343;-80
2022/05/15 05:30:07;;;;;;;6.13;3.60;;;;;;;26.46;47.76;99082.09;5076034;28;20120;-80
2022/05/15 05:32:32;;;;;;;4.75;3.30;;;;;;;26.46;47.63;99084.78;5058757;28;20060;-79
2022/05/15 05:34:58;;;;;;;4.30;2.97;;;;;;;26.49;47.56;99087.16;5078301;28;20025;-81
2022/05/15 05:37:23;;;;;;;5.78;3.65;;;;;;;26.48;47.54;99085.47;5060281;28;20060;-79
2022/05/15 05:39:50;;;;;;;4.60;3.33;;;;;;;26.50;47.49;99083.53;5077872;28;20089;-80
2022/05/15 05:42:15;;;;;;;5.57;3.50;;;;;;;26.53;47.74;99098.44;5059821;28;20020;-81
2022/05/15 05:44:41;;;;;;;6.00;3.28;;;;;;;26.50;47.45;99094.22;5060312;28;20100;-82
2022/05/15 05:47:07;;;;;;;4.40;3.40;;;;;;;26.46;47.67;99092.81;5060107;28;20086;-80
2022/05/15 05:49:32;;;;;;;4.53;2.92;;;;;;;26.46;47.46;99092.81;5078391;28;20071;-83
2022/05/15 05:51:58;;;;;;;5.82;3.45;;;;;;;26.46;47.69;99092.81;5062645;28;20029;-80
2022/05/15 05:54:24;;;;;;;5.78;3.35;;;;;;;26.48;47.49;99096.19;5063362;28;20030;-81
2022/05/15 05:56:49;;;;;;;5.10;3.40;;;;;;;26.46;47.67;99098.16;5079879;28;20032;-79
2022/05/15 05:59:15;;;;;;;7.13;3.70;;;;;;;26.45;47.43;99080.41;5062863;28;20100;-81
2022/05/15 06:01:40;;;;;;;5.03;3.40;;;;;;;26.43;47.41;99086.88;5081335;28;20040;-84
2022/05/15 06:06:50;;;;;;;5.03;3.20;;;;;;;26.44;47.56;99093.94;5081671;28;20039;-82
2022/05/15 06:09:15;;;;;;;4.82;3.42;;;;;;;26.41;47.48;99100.41;5082150;28;20092;-81
2022/05/15 06:11:41;;;;;;;5.13;3.45;;;;;;;26.43;47.65;99102.94;5060112;28;20509;-80
2022/05/15 06:14:07;;;;;;;6.13;3.35;;;;;;;26.41;47.47;99100.41;5075783;28;20042;-80
2022/05/15 06:16:32;;;;;;;4.82;3.15;;;;;;;26.41;47.80;99108.41;5057722;28;20064;-79
2022/05/15 06:18:59;;;;;;;5.15;3.10;;;;;;;26.39;47.49;99099.69;5057699;28;20052;-80
2022/05/15 06:21:25;;;;;;;6.65;3.63;;;;;;;26.39;47.37;99111.22;5057653;28;20401;-79
2022/05/15 06:23:50;;;;;;;5.65;3.40;;;;;;;26.41;47.66;99111.09;5058062;28;20028;-80
2022/05/15 06:26:16;;;;;;;6.35;4.05;;;;;;;26.42;47.26;99118.13;5075113;28;20488;-80
2022/05/15 06:28:42;;;;;;;4.95;3.33;;;;;;;26.40;47.60;99104.88;5057620;28;20025;-81
2022/05/15 06:31:07;;;;;;;5.47;3.53;;;;;;;26.42;47.57;99112.78;5058661;28;20097;-81
2022/05/15 06:33:33;;;;;;;4.93;3.38;;;;;;;26.43;47.41;99117.16;5076576;28;20056;-79
2022/05/15 06:35:59;;;;;;;5.05;3.15;;;;;;;26.41;47.53;99105.75;5058177;28;20119;-79
2022/05/15 06:38:25;;;;;;;6.35;3.30;;;;;;;26.39;47.46;99097.84;5057684;28;20025;-80
2022/05/15 06:40:50;;;;;;;6.88;3.60;;;;;;;26.41;47.24;99116.44;5074931;28;20100;-80
2022/05/15 06:43:16;;;;;;;5.65;3.20;;;;;;;26.43;47.69;99114.47;5075469;28;20028;-80
2022/05/15 06:45:42;;;;;;;5.25;3.40;;;;;;;26.44;47.41;99113.47;5075133;28;20020;-80
2022/05/15 06:48:08;;;;;;;5.53;3.72;;;;;;;26.44;47.28;99110.81;5059132;28;20431;-79
2022/05/15 06:50:34;;;;;;;5.75;3.47;;;;;;;26.43;47.27;99114.47;5075361;28;20028;-82
2022/05/15 06:52:59;;;;;;;6.45;3.65;;;;;;;26.45;47.29;99117.00;5056983;28;20032;-79
2022/05/15 06:55:25;;;;;;;4.72;3.22;;;;;;;26.44;47.34;99121.50;5074733;28;20056;-80
2022/05/15 06:57:51;;;;;;;6.53;3.35;;;;;;;26.46;47.52;99122.22;5056896;28;20111;-79
2022/05/15 07:00:22;;;;;;;6.80;3.85;;;;;;;26.47;47.23;99131.94;5074698;28;20020;-79
2022/05/15 07:02:49;;;;;;;5.57;3.53;;;;;;;26.49;47.22;99123.78;5056946;28;20096;-80
2022/05/15 07:05:20;;;;;;;5.45;3.22;;;;;;;26.48;47.34;99120.25;5057103;28;20050;-81
2022/05/15 07:07:46;;;;;;;5.53;3.30;;;;;;;26.50;47.09;99125.47;5056837;28;20094;-82
2022/05/15 07:10:12;;;;;;;6.70;3.42;;;;;;;26.49;47.20;99123.78;5056762;28;20028;-83
2022/05/15 07:12:38;;;;;;;7.10;3.90;;;;;;;26.49;47.53;99129.97;5074546;28;20033;-81
2022/05/15 07:15:04;;;;;;;5.75;3.33;;;;;;;26.51;47.08;99133.38;5057617;28;20024;-80
2022/05/15 07:17:30;;;;;;;6.65;3.67;;;;;;;26.52;47.13;99124.34;5074774;28;20122;-80
2022/05/15 07:19:56;;;;;;;6.25;3.30;;;;;;;26.52;47.05;99129.69;5074407;28;20036;-79
2022/05/15 07:22:22;;;;;;;5.72;3.22;;;;;;;26.52;47.26;99102.94;5074688;28;20435;-80
2022/05/15 07:24:48;;;;;;;7.38;3.92;;;;;;;26.54;47.22;99138.44;5059871;28;20442;-79
2022/05/15 07:27:14;;;;;;;7.07;3.72;;;;;;;26.57;47.08;99141.84;5075030;28;20435;-81
2022/05/15 07:29:41;;;;;;;6.30;3.90;;;;;;;26.58;47.07;99138.16;5057058;28;20056;-80
2022/05/15 07:32:08;;;;;;;6.75;3.30;;;;;;;26.58;47.10;99146.19;5058863;28;20048;-80
2022/05/15 07:34:37;;;;;;;6.38;3.70;;;;;;;26.58;46.88;99147.03;5078897;28;20351;-80
2022/05/15 07:37:03;;;;;;;6.90;3.42;;;;;;;26.59;47.20;99164.78;5061289;28;20165;-79
2022/05/15 07:39:29;;;;;;;6.85;3.78;;;;;;;26.60;46.85;99162.94;5079574;28;20037;-82
2022/05/15 07:41:55;;;;;;;6.28;3.40;;;;;;;26.61;47.12;99160.13;5061722;28;20107;-81
2022/05/15 07:44:20;;;;;;;5.63;3.50;;;;;;;26.60;47.22;99157.59;5061636;28;20029;-80
2022/05/15 07:46:46;;;;;;;7.07;3.70;;;;;;;26.57;47.42;99149.84;5079353;28;20033;-81
2022/05/15 07:49:13;;;;;;;5.55;3.50;;;;;;;26.58;47.23;99159.56;5062641;28;20024;-80
2022/05/15 07:51:44;;;;;;;5.75;3.20;;;;;;;26.57;46.97;99152.53;5080350;28;20173;-80
2022/05/15 07:54:12;;;;;;;5.90;3.80;;;;;;;26.58;47.27;99152.38;5064268;28;20025;-81
2022/05/15 07:56:37;;;;;;;5.68;3.40;;;;;;;26.59;47.32;99147.88;5064167;28;20035;-81
2022/05/15 07:59:03;;;;;;;5.85;3.50;;;;;;;26.57;47.22;99152.53;5065330;28;20450;-79
2022/05/15 08:01:29;;;;;;;5.68;3.10;;;;;;;26.58;47.46;99149.69;5081778;28;20032;-81
2022/05/15 08:03:55;;;;;;;5.63;3.30;;;;;;;26.59;47.50;99169.28;5067402;28;20028;-83
2022/05/15 08:09:07;;;;;;;7.45;3.80;;;;;;;26.60;47.41;99157.59;5087001;28;20039;-83
2022/05/15 08:11:34;;;;;;;6.70;3.80;;;;;;;26.61;47.21;99151.25;5086473;28;20027;-82
2022/05/15 08:14:01;;;;;;;5.35;3.50;;;;;;;26.62;47.48;99160.97;5069344;28;20501;-81
2022/05/15 08:16:27;;;;;;;5.97;3.53;;;;;;;26.63;47.26;99144.78;5068037;28;20458;-85
2022/05/15 08:24:22;;;;;;;5.57;3.42;;;;;;;26.67;47.20;99129.28;5080232;28;20099;-79
2022/05/15 08:26:48;;;;;;;9.63;3.80;;;;;;;26.69;47.13;99119.31;5075776;28;20032;-81
2022/05/15 08:29:15;;;;;;;7.75;4.18;;;;;;;26.70;47.06;99121.00;5077181;28;20040;-81
2022/05/15 08:31:41;;;;;;;6.88;3.60;;;;;;;26.71;47.40;99114.66;5061196;28;20028;-81
2022/05/15 08:34:09;;;;;;;6.38;3.63;;;;;;;26.73;47.09;99126.06;5079930;28;20071;-81
2022/05/15 08:36:36;;;;;;;7.63;3.90;;;;;;;26.73;47.18;99120.69;5063755;28;20028;-82
2022/05/15 08:39:03;;;;;;;7.00;3.40;;;;;;;26.74;47.19;99118.88;5062880;28;20120;-81
2022/05/15 08:41:31;;;;;;;6.05;3.55;;;;;;;26.76;47.20;99119.56;5061927;28;20032;-80
2022/05/15 08:44:13;;;;;;;6.30;3.58;;;;;;;26.78;46.86;99113.09;5077287;28;20452;-79
2022/05/15 08:47:09;;;;;;;7.32;3.80;;;;;;;26.79;47.14;99106.75;5042486;28;20021;-81
2022/05/15 08:49:41;;;;;;;7.63;3.58;;;;;;;26.80;47.20;99111.16;5056573;28;20021;-81
2022/05/15 08:52:09;;;;;;;5.57;3.53;;;;;;;26.83;46.78;99118.06;5039823;28;20112;-80
2022/05/15 08:54:55;;;;;;;8.70;3.97;;;;;;;26.83;46.72;99114.53;5039489;28;20112;-81
2022/05/15 08:57:34;;;;;;;6.88;3.42;;;;;;;26.83;46.89;99126.09;5058968;28;20032;-81
2022/05/15 09:00:01;;;;;;;8.07;3.88;;;;;;;26.86;46.98;99122.25;5060208;28;20024;-81
2022/05/15 09:02:27;;;;;;;9.30;4.10;;;;;;;26.85;46.96;99107.19;5077116;28;20024;-80
2022/05/15 09:04:54;;;;;;;6.78;3.60;;;;;;;26.87;47.10;99126.66;5076650;28;20416;-80
2022/05/15 09:07:33;;;;;;;7.13;4.13;;;;;;;26.88;46.88;99114.94;5058496;28;20492;-80
2022/05/15 09:10:20;;;;;;;8.27;4.20;;;;;;;26.91;46.89;99117.31;5059189;28;20028;-80
2022/05/15 09:12:56;;;;;;;8.02;3.63;;;;;;;26.93;47.03;99120.75;5069848;28;20060;-81
2022/05/15 09:15:31;;;;;;;6.63;3.60;;;;;;;26.93;46.97;99116.22;5075578;28;20035;-80
2022/05/15 09:18:02;;;;;;;9.02;4.63;;;;;;;26.94;46.83;99123.28;5062596;28;20024;-80
2022/05/15 09:20:57;;;;;;;7.60;4.25;;;;;;;26.97;47.00;99114.09;5075104;28;20416;-81
2022/05/15 09:23:37;;;;;;;9.00;4.22;;;;;;;26.99;47.03;99120.19;5062592;28;20527;-79
2022/05/15 09:26:25;;;;;;;8.90;3.90;;;;;;;27.02;46.75;99119.06;5077623;28;20085;-81
2022/05/15 09:29:01;;;;;;;10.27;4.60;;;;;;;27.03;46.54;99132.28;5059693;28;20027;-80
2022/05/15 09:31:37;;;;;;;8.30;4.03;;;;;;;27.06;46.95;99125.81;5078976;28;20103;-80
2022/05/15 09:34:06;;;;;;;9.60;4.85;;;;;;;27.06;47.05;99110.59;5077265;28;20129;-79
2022/05/15 09:36:34;;;;;;;8.00;3.90;;;;;;;27.06;46.89;99105.25;5050227;28;20042;-80
2022/05/15 09:39:25;;;;;;;10.27;4.40;;;;;;;27.11;46.68;99106.66;5076911;28;20150;-80
2022/05/15 09:45:07;;;;;;;7.85;3.92;;;;;;;27.13;46.73;99110.03;5067616;28;20048;-83
2022/05/15 09:47:38;;;;;;;7.47;4.13;;;;;;;27.15;46.52;99091.97;5059387;28;20123;-79
2022/05/15 09:50:09;;;;;;;8.85;4.15;;;;;;;27.16;46.56;99099.03;5058848;28;20033;-81
2022/05/15 09:52:42;;;;;;;7.35;4.10;;;;;;;27.19;46.84;99098.75;5076246;28;20028;-81
2022/05/15 09:55:26;;;;;;;10.48;3.80;;;;;;;27.20;46.83;99100.41;5076572;28;20037;-81
2022/05/15 09:58:15;;;;;;;8.27;4.20;;;;;;;27.22;46.52;99101.16;5062332;28;20115;-83
2022/05/15 10:00:41;;;;;;;10.48;4.38;;;;;;;27.22;46.52;99095.78;5054004;28;20119;-82
2022/05/15 10:03:25;;;;;;;8.90;4.30;;;;;;;27.25;46.49;99097.34;5060807;28;20055;-83
2022/05/15 10:06:07;;;;;;;6.40;3.60;;;;;;;27.26;46.83;99097.16;5059738;28;20362;-82
2022/05/15 10:08:33;;;;;;;7.22;3.92;;;;;;;27.28;46.28;99097.88;5061225;28;20039;-83
2022/05/15 10:11:08;;;;;;;8.57;3.92;;;;;;;27.27;46.43;99090.84;5058786;28;20059;-83
2022/05/15 10:13:39;;;;;;;7.50;3.40;;;;;;;27.28;46.75;99089.84;5052740;28;20020;-81
2022/05/15 10:16:17;;;;;;;8.73;3.80;;;;;;;27.30;46.33;99079.84;5058620;28;20074;-81
2022/05/15 10:19:12;;;;;;;8.88;3.47;;;;;;;27.31;46.34;99081.50;5077047;28;20137;-81
2022/05/15 10:21:48;;;;;;;9.98;4.00;;;;;;;27.34;46.63;99108.03;5045312;28;20048;-83
2022/05/15 10:24:34;;;;;;;7.28;3.80;;;;;;;27.35;46.62;99090.09;5077147;28;20061;-82
2022/05/15 10:27:16;;;;;;;9.15;3.95;;;;;;;27.37;46.66;99089.97;5063388;28;20025;-83
2022/05/15 10:29:47;;;;;;;10.02;4.03;;;;;;;27.38;46.35;99089.81;5062618;28;20032;-82
2022/05/15 10:32:21;;;;;;;7.32;3.40;;;;;;;27.39;46.23;99094.19;5060071;28;20382;-83
2022/05/15 10:34:47;;;;;;;7.90;3.60;;;;;;;27.41;46.51;99080.66;5040671;28;20093;-83
2022/05/15 10:37:18;;;;;;;7.60;3.40;;;;;;;27.43;46.69;99078.66;5062170;28;20052;-85
2022/05/15 10:40:05;;;;;;;8.45;3.95;;;;;;;27.44;46.56;99080.34;5084633;28;20080;-84
2022/05/15 10:42:39;;;;;;;7.85;3.47;;;;;;;27.45;46.44;99088.25;5049919;28;20032;-82
2022/05/15 10:45:15;;;;;;;9.73;4.07;;;;;;;27.48;46.19;99092.47;5060070;28;20035;-81
2022/05/15 10:48:05;;;;;;;6.32;3.50;;;;;;;27.50;46.18;99084.31;5047281;28;20507;-83
2022/05/15 10:50:55;;;;;;;9.80;3.40;;;;;;;27.51;46.18;99097.56;5043401;28;20035;-83
2022/05/15 10:59:46;;;;;;;7.53;3.60;;;;;;;27.55;46.34;99093.56;5076945;28;20036;-85
2022/05/15 11:02:35;;;;;;;8.43;3.58;;;;;;;27.56;46.37;99111.34;5058390;28;20358;-82
2022/05/15 11:05:30;;;;;;;7.95;3.72;;;;;;;27.58;46.01;99103.19;5057903;28;20029;-84
2022/05/15 11:08:23;;;;;;;7.57;3.92;;;;;;;27.58;46.11;99104.06;5053677;28;20040;-83
2022/05/15 11:11:20;;;;;;;6.93;3.50;;;;;;;27.60;46.17;99091.34;5059680;28;20043;-83
2022/05/15 11:13:54;;;;;;;10.18;4.15;;;;;;;27.61;46.28;99101.06;5066682;28;20071;-85
2022/05/15 11:17:00;;;;;;;7.93;4.03;;;;;;;27.62;46.04;99093.88;5077688;28;20074;-84
2022/05/15 11:19:31;;;;;;;7.57;3.40;;;;;;;27.64;46.36;99091.06;4947113;28;20055;-85
2022/05/15 11:22:20;;;;;;;7.97;3.80;;;;;;;27.66;46.22;99083.72;5045649;28;20074;-82
2022/05/15 11:25:04;;;;;;;5.50;3.10;;;;;;;27.66;46.09;99089.06;5041326;28;20029;-83
2022/05/15 11:27:57;;;;;;;9.48;4.10;;;;;;;27.69;46.05;99083.44;5071978;28;20028;-83
2022/05/15 11:30:31;;;;;;;8.57;3.72;;;;;;;27.68;46.39;99082.56;5060726;28;20024;-82
2022/05/15 11:33:04;;;;;;;11.88;5.53;;;;;;;27.71;46.42;99086.78;5060394;28;20048;-82
2022/05/15 11:35:33;;;;;;;18.63;9.05;;;;;;;27.71;46.35;99081.44;5060611;28;20078;-80
2022/05/15 11:37:59;;;;;;;33.10;15.50;;;;;;;27.72;46.10;99085.78;5060849;28;20122;-81
2022/05/15 11:40:50;;;;;;;30.40;12.18;;;;;;;27.73;46.25;99079.44;5060495;28;20063;-83
2022/05/15 11:43:30;;;;;;;25.48;12.27;;;;;;;27.74;46.16;99071.25;5060589;28;20033;-82
2022/05/15 11:45:58;;;;;;;29.20;11.93;;;;;;;27.76;45.91;99063.06;5077601;28;20090;-82
2022/05/15 11:48:43;;;;;;;25.80;11.45;;;;;;;27.77;46.11;99064.75;5059878;28;20119;-82
2022/05/15 11:51:13;;;;;;;20.45;9.27;;;;;;;27.77;45.83;99055.84;5060868;28;20029;-83
2022/05/15 11:53:55;;;;;;;17.95;8.60;;;;;;;27.79;45.76;99065.44;5060437;28;20119;-84
2022/05/15 11:56:32;;;;;;;17.45;7.78;;;;;;;27.80;46.02;99059.09;5060738;28;20347;-84
2022/05/15 11:59:02;;;;;;;16.60;7.60;;;;;;;27.82;46.01;99061.63;5060796;28;20051;-85
2022/05/15 12:01:35;;;;;;;12.70;6.93;;;;;;;27.82;46.08;99067.84;5040112;28;20036;-84
2022/05/15 12:04:07;;;;;;;16.02;6.68;;;;;;;27.83;45.75;99058.81;5057739;28;20025;-83
2022/05/15 12:06:57;;;;;;;15.13;6.13;;;;;;;27.85;45.82;99055.97;5063393;28;20028;-82